Time;durP1;ratioP1;P1;durP2;ratioP2;P2;SDS_P1;SDS_P2;PMS_P1;PMS_P2;Temp;Humidity;BMP_temperature;BMP_pressure;BME280_temperature;BME280_humidity;BME280_pressure;Samples;Min_cycle;Max_cycle;Signal;HPM_P1;HPM_P2
2022/11/22 00:00:17;;;;;;;11.80;2.33;;;;;;;;;;4998422;28;20317;-68
2022/11/22 00:02:44;;;;;;;15.02;2.17;;;;;;;;;;5022394;28;20094;-68
2022/11/22 00:05:10;;;;;;;17.40;2.80;;;;;;;;;;5014527;28;20550;-68
2022/11/22 00:07:36;;;;;;;17.23;2.58;;;;;;;;;;5003110;28;20091;-68
2022/11/22 00:10:03;;;;;;;17.05;2.35;;;;;;;;;;5011526;28;20441;-68
2022/11/22 00:12:29;;;;;;;13.30;2.33;;;;;;;;;;4997257;28;20056;-69
2022/11/22 00:14:55;;;;;;;11.93;1.88;;;;;;;;;;5013632;28;20104;-69
2022/11/22 00:17:22;;;;;;;15.73;2.40;;;;;;;;;;5001154;28;20467;-69
2022/11/22 00:19:48;;;;;;;;;;;;;;;;;;5015571;28;20029;-69
2022/11/22 00:22:14;;;;;;;17.15;1.80;;;;;;;;;;4998626;28;19909;-68
2022/11/22 00:24:40;;;;;;;11.13;2.10;;;;;;;;;;4998506;28;20024;-67
2022/11/22 00:27:06;;;;;;;;;;;;;;;;;;5009842;28;20277;-68
2022/11/22 00:29:32;;;;;;;15.30;2.70;;;;;;;;;;5014474;28;19928;-67
2022/11/22 00:31:58;;;;;;;13.88;2.35;;;;;;;;;;4998359;28;20454;-67
2022/11/22 00:34:25;;;;;;;11.13;1.80;;;;;;;;;;4998904;28;20242;-67
2022/11/22 00:36:51;;;;;;;10.77;1.75;;;;;;;;;;5014138;28;20356;-67
2022/11/22 00:39:17;;;;;;;12.50;2.25;;;;;;;;;;5016305;28;20036;-67
2022/11/22 00:41:43;;;;;;;11.27;2.03;;;;;;;;;;4998941;28;20047;-67
2022/11/22 00:44:09;;;;;;;10.98;1.50;;;;;;;;;;4996277;28;20036;-67
2022/11/22 00:46:35;;;;;;;14.10;2.05;;;;;;;;;;5016453;28;20301;-66
2022/11/22 00:49:01;;;;;;;14.30;2.38;;;;;;;;;;5014003;28;20532;-68
2022/11/22 00:51:28;;;;;;;11.18;1.60;;;;;;;;;;5014882;28;20065;-68
2022/11/22 00:53:54;;;;;;;11.15;1.58;;;;;;;;;;5014867;28;20450;-67
2022/11/22 00:56:25;;;;;;;15.27;2.33;;;;;;;;;;4999188;28;20130;-67
2022/11/22 00:58:51;;;;;;;17.52;2.58;;;;;;;;;;4993338;28;20055;-67
2022/11/22 01:01:17;;;;;;;15.18;2.20;;;;;;;;;;5019261;28;20095;-67
2022/11/22 01:03:43;;;;;;;20.27;2.80;;;;;;;;;;5018101;28;20251;-68
2022/11/22 01:06:10;;;;;;;18.52;2.67;;;;;;;;;;5015796;28;20028;-67
2022/11/22 01:08:36;;;;;;;16.40;2.35;;;;;;;;;;5017884;28;20110;-67
2022/11/22 01:11:02;;;;;;;17.05;2.47;;;;;;;;;;5016877;28;20112;-68
2022/11/22 01:13:29;;;;;;;22.10;2.67;;;;;;;;;;5002477;28;20368;-68
2022/11/22 01:16:02;;;;;;;19.35;2.20;;;;;;;;;;4996583;28;20107;-68
2022/11/22 01:18:28;;;;;;;23.60;3.10;;;;;;;;;;5015632;28;20454;-67
2022/11/22 01:20:54;;;;;;;20.20;2.80;;;;;;;;;;5014823;28;20059;-68
2022/11/22 01:23:21;;;;;;;16.70;3.22;;;;;;;;;;5017337;28;20110;-69
2022/11/22 01:25:48;;;;;;;16.95;2.50;;;;;;;;;;5014607;28;20489;-69
2022/11/22 01:28:16;;;;;;;19.60;3.00;;;;;;;;;;4996035;28;20033;-70
2022/11/22 01:30:43;;;;;;;16.42;2.47;;;;;;;;;;5016620;28;20051;-69
2022/11/22 01:33:12;;;;;;;18.73;2.40;;;;;;;;;;4998031;28;20615;-67
2022/11/22 01:35:38;;;;;;;17.35;2.70;;;;;;;;;;5021127;28;20114;-67
2022/11/22 01:38:04;;;;;;;16.70;2.38;;;;;;;;;;5016290;28;20029;-66
2022/11/22 01:40:30;;;;;;;14.00;2.28;;;;;;;;;;4997956;28;20025;-67
2022/11/22 01:42:58;;;;;;;15.63;2.85;;;;;;;;;;4995355;28;20033;-67
2022/11/22 01:45:33;;;;;;;16.55;2.28;;;;;;;;;;5010537;28;20036;-67
2022/11/22 01:48:06;;;;;;;15.35;2.35;;;;;;;;;;5026496;28;20530;-66
2022/11/22 01:50:33;;;;;;;13.35;2.47;;;;;;;;;;5024638;28;20037;-66
2022/11/22 01:53:02;;;;;;;14.90;2.40;;;;;;;;;;5024801;28;20036;-65
2022/11/22 01:55:28;;;;;;;15.23;2.63;;;;;;;;;;5008716;28;20056;-65
2022/11/22 01:57:54;;;;;;;18.95;2.95;;;;;;;;;;5025044;28;20447;-65
2022/11/22 02:00:20;;;;;;;16.38;2.78;;;;;;;;;;5031153;28;20036;-65
2022/11/22 02:02:50;;;;;;;14.45;2.17;;;;;;;;;;5028888;28;20025;-64
2022/11/22 02:05:18;;;;;;;11.40;2.28;;;;;;;;;;5007186;28;20302;-65
2022/11/22 02:08:22;;;;;;;17.67;2.03;;;;;;;;;;5026103;28;20025;-65
2022/11/22 02:10:50;;;;;;;14.57;1.80;;;;;;;;;;4936342;28;20058;-66
2022/11/22 02:13:18;;;;;;;15.80;2.03;;;;;;;;;;4943998;28;20412;-66
2022/11/22 02:15:47;;;;;;;19.65;2.58;;;;;;;;;;4926396;28;20881;-66
2022/11/22 02:18:14;;;;;;;14.23;2.50;;;;;;;;;;4886565;28;20125;-65
2022/11/22 02:20:40;;;;;;;16.45;2.25;;;;;;;;;;4886529;28;20367;-65
2022/11/22 02:23:12;;;;;;;11.75;2.33;;;;;;;;;;4892005;28;20064;-65
2022/11/22 02:25:41;;;;;;;16.75;2.70;;;;;;;;;;4880341;28;20804;-64
2022/11/22 02:28:12;;;;;;;13.50;2.30;;;;;;;;;;4890870;28;20127;-67
2022/11/22 02:30:41;;;;;;;15.98;2.30;;;;;;;;;;4903349;28;20887;-67
2022/11/22 02:33:11;;;;;;;13.32;2.00;;;;;;;;;;4891691;28;20027;-67
2022/11/22 02:35:37;;;;;;;14.73;1.95;;;;;;;;;;4910646;28;20158;-67
2022/11/22 02:38:04;;;;;;;14.23;1.63;;;;;;;;;;4899175;28;20091;-67
2022/11/22 02:40:37;;;;;;;18.27;3.00;;;;;;;;;;4917549;28;20487;-67
2022/11/22 02:43:05;;;;;;;15.65;2.10;;;;;;;;;;4973494;28;20093;-66
2022/11/22 02:45:31;;;;;;;12.82;1.77;;;;;;;;;;4972591;28;20060;-66
2022/11/22 02:48:07;;;;;;;12.30;1.90;;;;;;;;;;4961645;28;20029;-65
2022/11/22 02:50:34;;;;;;;8.77;1.48;;;;;;;;;;4995383;28;20047;-68
2022/11/22 02:53:00;;;;;;;12.48;1.60;;;;;;;;;;5006214;28;20324;-69
2022/11/22 02:55:26;;;;;;;13.40;1.88;;;;;;;;;;5035087;28;20581;-66
2022/11/22 02:57:52;;;;;;;14.93;1.65;;;;;;;;;;5032017;28;20029;-66
2022/11/22 03:00:19;;;;;;;12.90;2.08;;;;;;;;;;5010787;28;20045;-66
2022/11/22 03:02:45;;;;;;;11.00;1.63;;;;;;;;;;5028388;28;20029;-66
2022/11/22 03:05:11;;;;;;;15.88;2.25;;;;;;;;;;5009178;28;20695;-68
2022/11/22 03:07:37;;;;;;;17.95;2.58;;;;;;;;;;5027207;28;20375;-66
2022/11/22 03:10:06;;;;;;;12.40;1.85;;;;;;;;;;5011501;28;20033;-66
2022/11/22 03:12:36;;;;;;;12.77;1.73;;;;;;;;;;5033122;28;20083;-66
2022/11/22 03:15:02;;;;;;;7.25;1.08;;;;;;;;;;5024458;28;20025;-68
2022/11/22 03:17:28;;;;;;;10.57;1.67;;;;;;;;;;5029171;28;20331;-68
2022/11/22 03:19:54;;;;;;;14.63;2.08;;;;;;;;;;5025441;28;20035;-68
2022/11/22 03:22:20;;;;;;;17.48;2.15;;;;;;;;;;5030082;28;20687;-69
2022/11/22 03:25:08;;;;;;;20.50;2.40;;;;;;;;;;5014839;28;20036;-67
2022/11/22 03:27:33;;;;;;;14.17;1.93;;;;;;;;;;5029295;28;20510;-67
2022/11/22 03:30:00;;;;;;;13.98;2.13;;;;;;;;;;5012377;28;20697;-66
2022/11/22 03:32:29;;;;;;;14.82;2.17;;;;;;;;;;5012456;28;20033;-66
2022/11/22 03:34:55;;;;;;;14.40;2.15;;;;;;;;;;5026550;28;20044;-66
2022/11/22 03:37:21;;;;;;;12.88;2.15;;;;;;;;;;5028796;28;20116;-66
2022/11/22 03:39:50;;;;;;;12.25;1.65;;;;;;;;;;5038096;28;20487;-68
2022/11/22 03:42:17;;;;;;;13.48;2.53;;;;;;;;;;5033351;28;20101;-64
2022/11/22 03:44:43;;;;;;;12.07;2.17;;;;;;;;;;5020776;28;20037;-62
2022/11/22 03:47:11;;;;;;;10.82;1.85;;;;;;;;;;5013900;28;20041;-63
2022/11/22 03:49:37;;;;;;;16.98;2.60;;;;;;;;;;5030827;28;20039;-63
2022/11/22 03:52:05;;;;;;;14.18;1.98;;;;;;;;;;5034621;28;20067;-64
2022/11/22 03:54:30;;;;;;;;;;;;;;;;;;5019076;28;20131;-63
2022/11/22 03:56:57;;;;;;;13.85;2.38;;;;;;;;;;5011154;28;20762;-65
2022/11/22 03:59:23;;;;;;;16.10;2.20;;;;;;;;;;5013771;28;20029;-64
2022/11/22 04:01:49;;;;;;;15.55;1.88;;;;;;;;;;5022469;28;20036;-62
2022/11/22 04:04:15;;;;;;;18.73;3.45;;;;;;;;;;5026433;28;20033;-62
2022/11/22 04:06:41;;;;;;;21.10;2.63;;;;;;;;;;5028577;28;20544;-65
2022/11/22 04:09:07;;;;;;;14.48;2.47;;;;;;;;;;5024593;28;20726;-64
2022/11/22 04:11:33;;;;;;;18.02;2.30;;;;;;;;;;5009443;28;20457;-64
2022/11/22 04:16:44;;;;;;;11.70;1.70;;;;;;;;;;5028981;28;20703;-65
2022/11/22 04:19:10;;;;;;;14.35;1.90;;;;;;;;;;5022233;28;20073;-63
2022/11/22 04:21:36;;;;;;;16.67;2.22;;;;;;;;;;5012065;28;20032;-63
2022/11/22 04:26:52;;;;;;;12.80;2.50;;;;;;;;;;5027465;28;20083;-64
2022/11/22 04:29:19;;;;;;;12.15;2.15;;;;;;;;;;5009272;28;20033;-62
2022/11/22 04:34:30;;;;;;;12.52;1.90;;;;;;;;;;5033343;28;20039;-62
2022/11/22 04:36:56;;;;;;;16.25;1.92;;;;;;;;;;5025749;28;20510;-63
2022/11/22 04:39:22;;;;;;;13.07;2.00;;;;;;;;;;5014690;28;20364;-64
2022/11/22 04:44:39;;;;;;;10.85;1.60;;;;;;;;;;5012352;28;20144;-64
2022/11/22 04:44:40;;;;;;;15.48;2.10;;;;;;;;;;5028945;28;20612;-64
2022/11/22 04:47:10;;;;;;;15.63;1.85;;;;;;;;;;5010633;28;20036;-64
2022/11/22 04:49:36;;;;;;;10.60;1.92;;;;;;;;;;5030682;28;20021;-63
2022/11/22 04:54:48;;;;;;;12.95;1.70;;;;;;;;;;5025504;28;20479;-64
2022/11/22 04:57:14;;;;;;;14.00;1.92;;;;;;;;;;5029224;28;20364;-62
2022/11/22 04:59:40;;;;;;;13.10;1.85;;;;;;;;;;5028440;28;20746;-64
2022/11/22 05:02:06;;;;;;;17.38;2.20;;;;;;;;;;5007827;28;20037;-63
2022/11/22 05:04:33;;;;;;;15.88;1.67;;;;;;;;;;5012884;28;20037;-63
2022/11/22 05:06:59;;;;;;;12.93;2.40;;;;;;;;;;5025109;28;20043;-64
2022/11/22 05:09:25;;;;;;;19.38;2.00;;;;;;;;;;5008651;28;20047;-64
2022/11/22 05:11:52;;;;;;;16.50;2.45;;;;;;;;;;5025131;28;20080;-65
2022/11/22 05:14:18;;;;;;;16.77;2.78;;;;;;;;;;5026470;28;20029;-64
2022/11/22 05:16:44;;;;;;;18.63;2.83;;;;;;;;;;5009510;28;20036;-62
2022/11/22 05:19:10;;;;;;;13.88;2.20;;;;;;;;;;5022192;28;20049;-62
2022/11/22 05:21:36;;;;;;;23.42;2.38;;;;;;;;;;5027295;28;20033;-62
2022/11/22 05:24:03;;;;;;;15.00;2.53;;;;;;;;;;5024710;28;20033;-62
2022/11/22 05:26:30;;;;;;;13.65;2.00;;;;;;;;;;5027003;28;20033;-62
2022/11/22 05:28:59;;;;;;;15.52;2.40;;;;;;;;;;5023064;28;20030;-61
2022/11/22 05:31:26;;;;;;;16.75;2.67;;;;;;;;;;5027911;28;20475;-62
2022/11/22 05:33:54;;;;;;;13.75;2.38;;;;;;;;;;5022510;28;20477;-62
2022/11/22 05:36:20;;;;;;;16.35;2.22;;;;;;;;;;5025891;28;20510;-62
2022/11/22 05:38:47;;;;;;;12.18;2.00;;;;;;;;;;5028643;28;20032;-62
2022/11/22 05:41:15;;;;;;;14.43;2.22;;;;;;;;;;5027786;28;20230;-62
2022/11/22 05:43:41;;;;;;;17.20;1.83;;;;;;;;;;5027939;28;20065;-62
2022/11/22 05:46:21;;;;;;;13.48;1.90;;;;;;;;;;5025317;28;20861;-63
2022/11/22 05:48:48;;;;;;;17.40;1.98;;;;;;;;;;5011451;28;20037;-63
2022/11/22 05:51:16;;;;;;;17.70;2.40;;;;;;;;;;5025716;28;20028;-63
2022/11/22 05:53:43;;;;;;;13.93;2.45;;;;;;;;;;5026597;28;20067;-63
2022/11/22 05:56:10;;;;;;;13.07;1.88;;;;;;;;;;5007863;28;20017;-63
2022/11/22 05:58:36;;;;;;;16.65;2.50;;;;;;;;;;5027565;28;20033;-64
2022/11/22 06:01:02;;;;;;;;;;;;;;;;;;5009754;28;20061;-63
2022/11/22 06:03:28;;;;;;;14.55;2.22;;;;;;;;;;5011349;28;20000;-63
2022/11/22 06:05:55;;;;;;;13.32;2.03;;;;;;;;;;5006376;28;20532;-63
2022/11/22 06:08:21;;;;;;;10.10;1.52;;;;;;;;;;5025789;28;20039;-63
2022/11/22 06:10:47;;;;;;;8.48;1.88;;;;;;;;;;5010888;28;20044;-63
2022/11/22 06:13:13;;;;;;;;;;;;;;;;;;5028540;28;20029;-63
2022/11/22 06:15:39;;;;;;;12.93;2.17;;;;;;;;;;5033168;28;19913;-63
2022/11/22 06:18:05;;;;;;;14.38;2.03;;;;;;;;;;5027631;28;20025;-63
2022/11/22 06:20:32;;;;;;;11.57;2.28;;;;;;;;;;5014979;28;20032;-63
2022/11/22 06:22:58;;;;;;;10.40;1.55;;;;;;;;;;5011613;28;20047;-63
2022/11/22 06:25:24;;;;;;;;;;;;;;;;;;5016351;28;20040;-63
2022/11/22 06:27:50;;;;;;;14.05;2.20;;;;;;;;;;5029938;28;20299;-63
2022/11/22 06:30:17;;;;;;;12.25;1.77;;;;;;;;;;5015422;28;20051;-63
2022/11/22 06:32:43;;;;;;;12.15;2.05;;;;;;;;;;5029074;28;20082;-63
2022/11/22 06:35:09;;;;;;;16.58;2.10;;;;;;;;;;5010858;28;20040;-63
2022/11/22 06:37:35;;;;;;;13.98;2.55;;;;;;;;;;5030399;28;20029;-63
2022/11/22 06:40:02;;;;;;;11.82;1.80;;;;;;;;;;5029536;28;20336;-63
2022/11/22 06:42:28;;;;;;;;;;;;;;;;;;5016475;28;20132;-62
2022/11/22 06:44:54;;;;;;;12.57;1.83;;;;;;;;;;5029714;28;20661;-64
2022/11/22 06:47:20;;;;;;;11.90;1.90;;;;;;;;;;5016142;28;20029;-63
2022/11/22 06:49:49;;;;;;;19.10;2.13;;;;;;;;;;5033445;28;20068;-63
2022/11/22 06:52:15;;;;;;;15.95;2.35;;;;;;;;;;5030253;28;20249;-63
2022/11/22 06:54:41;;;;;;;13.40;2.63;;;;;;;;;;5033806;28;20643;-63
2022/11/22 06:57:07;;;;;;;14.80;2.38;;;;;;;;;;5013206;28;21168;-63
2022/11/22 06:59:34;;;;;;;15.85;2.22;;;;;;;;;;5029892;28;20132;-63
2022/11/22 07:02:00;;;;;;;11.73;1.65;;;;;;;;;;5027113;28;20036;-62
2022/11/22 07:04:26;;;;;;;14.77;2.13;;;;;;;;;;5029260;28;20098;-63
2022/11/22 07:06:53;;;;;;;14.88;2.05;;;;;;;;;;5029177;28;20123;-65
2022/11/22 07:09:19;;;;;;;12.55;1.85;;;;;;;;;;5009529;28;20033;-63
2022/11/22 07:11:45;;;;;;;12.00;1.88;;;;;;;;;;5011787;28;20471;-62
2022/11/22 07:14:11;;;;;;;19.88;2.50;;;;;;;;;;5026368;28;20084;-62
2022/11/22 07:16:38;;;;;;;16.73;2.30;;;;;;;;;;5032374;28;20397;-63
2022/11/22 07:19:04;;;;;;;17.80;2.05;;;;;;;;;;5026684;28;20578;-65
2022/11/22 07:21:31;;;;;;;18.95;2.78;;;;;;;;;;5027786;28;20573;-62
2022/11/22 07:23:57;;;;;;;14.98;2.40;;;;;;;;;;5024154;28;20033;-65
2022/11/22 07:26:25;;;;;;;21.63;2.70;;;;;;;;;;5014794;28;20060;-62
2022/11/22 07:28:51;;;;;;;17.63;2.35;;;;;;;;;;5026446;28;20041;-65
2022/11/22 07:31:18;;;;;;;14.50;2.03;;;;;;;;;;5029516;28;20034;-65
2022/11/22 07:33:44;;;;;;;17.10;2.47;;;;;;;;;;5025403;28;20491;-65
2022/11/22 07:36:11;;;;;;;16.55;1.95;;;;;;;;;;5019703;28;20041;-63
2022/11/22 07:38:38;;;;;;;13.38;2.00;;;;;;;;;;5010837;28;20030;-65
2022/11/22 07:41:05;;;;;;;14.73;2.13;;;;;;;;;;5009519;28;20033;-63
2022/11/22 07:43:31;;;;;;;17.20;1.83;;;;;;;;;;5013799;28;20033;-63
2022/11/22 07:45:59;;;;;;;14.82;2.25;;;;;;;;;;5026614;28;20025;-63
2022/11/22 07:48:25;;;;;;;9.88;1.60;;;;;;;;;;5009113;28;20033;-63
2022/11/22 07:50:51;;;;;;;16.98;2.95;;;;;;;;;;5028907;28;20037;-63
2022/11/22 07:53:17;;;;;;;13.68;1.90;;;;;;;;;;5031962;28;20033;-63
2022/11/22 07:55:44;;;;;;;13.55;2.20;;;;;;;;;;5027867;28;20033;-64
2022/11/22 07:58:10;;;;;;;14.00;2.17;;;;;;;;;;5028212;28;20025;-63
2022/11/22 08:00:36;;;;;;;11.95;2.00;;;;;;;;;;5011913;28;20229;-63
2022/11/22 08:03:02;;;;;;;14.10;2.67;;;;;;;;;;5009421;28;20032;-63
2022/11/22 08:05:28;;;;;;;10.98;2.20;;;;;;;;;;5031411;28;20055;-64
2022/11/22 08:07:54;;;;;;;16.42;2.55;;;;;;;;;;5030298;28;20486;-63
2022/11/22 08:10:21;;;;;;;13.05;2.00;;;;;;;;;;5013086;28;20325;-63
2022/11/22 08:12:48;;;;;;;13.35;2.00;;;;;;;;;;5029693;28;20076;-63
2022/11/22 08:15:21;;;;;;;17.90;2.30;;;;;;;;;;5014193;28;20033;-63
2022/11/22 08:17:49;;;;;;;12.05;2.20;;;;;;;;;;5006865;28;20029;-63
2022/11/22 08:20:19;;;;;;;14.95;2.30;;;;;;;;;;5028520;28;20478;-63
2022/11/22 08:22:49;;;;;;;12.60;2.00;;;;;;;;;;5031040;28;20305;-63
2022/11/22 08:25:24;;;;;;;10.63;1.73;;;;;;;;;;5030407;28;20493;-64
2022/11/22 08:27:50;;;;;;;12.57;1.98;;;;;;;;;;5024587;28;20063;-63
2022/11/22 08:30:16;;;;;;;14.63;2.22;;;;;;;;;;5020605;28;20247;-63
2022/11/22 08:32:42;;;;;;;13.45;2.17;;;;;;;;;;5024504;28;20029;-63
2022/11/22 08:35:09;;;;;;;10.10;1.95;;;;;;;;;;5022279;28;20156;-63
2022/11/22 08:37:35;;;;;;;13.82;2.10;;;;;;;;;;5007137;28;20043;-63
2022/11/22 08:40:01;;;;;;;13.48;1.98;;;;;;;;;;5023403;28;20029;-63
2022/11/22 08:42:27;;;;;;;16.90;2.28;;;;;;;;;;5007796;28;20670;-63
2022/11/22 08:44:54;;;;;;;14.13;2.40;;;;;;;;;;5022162;28;20036;-63
2022/11/22 08:47:20;;;;;;;15.90;2.15;;;;;;;;;;5026554;28;20447;-63
2022/11/22 08:49:46;;;;;;;16.70;2.25;;;;;;;;;;5025971;28;20136;-62
2022/11/22 08:52:12;;;;;;;12.20;2.25;;;;;;;;;;5024867;28;20063;-62
2022/11/22 08:54:38;;;;;;;13.70;1.83;;;;;;;;;;5026288;28;20479;-62
2022/11/22 08:57:04;;;;;;;10.90;1.92;;;;;;;;;;5003789;28;20033;-66
2022/11/22 08:59:30;;;;;;;10.85;1.75;;;;;;;;;;5026192;28;20025;-63
2022/11/22 09:01:57;;;;;;;18.45;2.53;;;;;;;;;;5022668;28;20040;-63
2022/11/22 09:04:23;;;;;;;15.98;2.03;;;;;;;;;;5025615;28;20106;-63
2022/11/22 09:06:49;;;;;;;9.70;1.63;;;;;;;;;;5021778;28;20131;-63
2022/11/22 09:09:15;;;;;;;13.00;2.22;;;;;;;;;;5021792;28;20037;-63
2022/11/22 09:11:41;;;;;;;;;;;;;;;;;;5024652;28;20049;-63
2022/11/22 09:14:07;;;;;;;10.07;1.77;;;;;;;;;;5006550;28;23773;-63
2022/11/22 09:16:33;;;;;;;11.52;1.60;;;;;;;;;;5025599;28;20326;-63
2022/11/22 09:18:59;;;;;;;8.90;1.70;;;;;;;;;;5024506;28;20048;-63
2022/11/22 09:21:26;;;;;;;18.17;2.10;;;;;;;;;;5025891;28;20048;-63
2022/11/22 09:23:53;;;;;;;11.13;1.80;;;;;;;;;;5022190;28;20371;-63
2022/11/22 09:26:26;;;;;;;13.25;2.10;;;;;;;;;;5007850;28;20047;-63
2022/11/22 09:28:52;;;;;;;13.13;2.30;;;;;;;;;;5022147;28;20068;-63
2022/11/22 09:31:21;;;;;;;11.85;2.20;;;;;;;;;;5025452;28;20621;-63
2022/11/22 09:33:48;;;;;;;10.18;1.67;;;;;;;;;;5006762;28;20033;-64
2022/11/22 09:36:18;;;;;;;9.77;1.58;;;;;;;;;;5025940;28;20021;-64
2022/11/22 09:38:47;;;;;;;9.63;1.75;;;;;;;;;;5024815;28;20090;-64
2022/11/22 09:41:16;;;;;;;13.30;1.90;;;;;;;;;;5007622;28;20029;-64
2022/11/22 09:43:42;;;;;;;15.63;1.90;;;;;;;;;;5025795;28;20280;-64
2022/11/22 09:46:11;;;;;;;12.75;2.05;;;;;;;;;;5022152;28;20226;-65
2022/11/22 09:48:59;;;;;;;12.07;2.10;;;;;;;;;;5010778;28;20027;-65
2022/11/22 09:51:29;;;;;;;11.18;2.00;;;;;;;;;;5010112;28;20048;-65
2022/11/22 09:54:00;;;;;;;12.57;1.70;;;;;;;;;;5009450;28;20025;-64
2022/11/22 09:56:27;;;;;;;11.52;1.65;;;;;;;;;;5012159;28;20124;-65
2022/11/22 09:59:05;;;;;;;8.45;1.50;;;;;;;;;;5009357;28;20107;-65
2022/11/22 10:01:31;;;;;;;9.77;2.05;;;;;;;;;;5030016;28;20096;-65
2022/11/22 10:04:00;;;;;;;11.63;1.85;;;;;;;;;;5026812;28;20065;-64
2022/11/22 10:06:28;;;;;;;13.00;1.92;;;;;;;;;;5029983;28;20036;-65
2022/11/22 10:08:54;;;;;;;11.77;1.77;;;;;;;;;;5007464;28;20025;-65
2022/11/22 10:11:36;;;;;;;10.00;1.98;;;;;;;;;;5029920;28;20438;-65
2022/11/22 10:14:11;;;;;;;9.23;1.60;;;;;;;;;;5026445;28;20087;-65
2022/11/22 10:16:39;;;;;;;10.90;1.90;;;;;;;;;;5032438;28;20024;-65
2022/11/22 10:19:14;;;;;;;12.30;2.40;;;;;;;;;;5022865;28;20456;-64
2022/11/22 10:21:41;;;;;;;9.10;1.88;;;;;;;;;;5004391;28;20029;-64
2022/11/22 10:24:14;;;;;;;11.93;2.08;;;;;;;;;;5024929;28;21847;-64
2022/11/22 10:26:41;;;;;;;12.82;2.20;;;;;;;;;;5008954;28;20275;-64
2022/11/22 10:29:25;;;;;;;12.02;1.90;;;;;;;;;;5024884;28;20047;-65
2022/11/22 10:31:58;;;;;;;10.98;1.50;;;;;;;;;;5022916;28;20032;-65
2022/11/22 10:34:33;;;;;;;11.10;1.95;;;;;;;;;;5025315;28;20203;-65
2022/11/22 10:36:59;;;;;;;12.05;1.63;;;;;;;;;;5001253;28;20369;-65
2022/11/22 10:39:28;;;;;;;7.95;1.52;;;;;;;;;;5025187;28;20264;-64
2022/11/22 10:41:54;;;;;;;9.43;1.50;;;;;;;;;;5025844;28;20044;-64
2022/11/22 10:44:20;;;;;;;;;;;;;;;;;;5026578;28;20526;-65
2022/11/22 10:46:54;;;;;;;6.80;1.45;;;;;;;;;;5024864;28;19919;-65
2022/11/22 10:49:37;;;;;;;9.60;1.75;;;;;;;;;;5022892;28;20570;-65
2022/11/22 10:52:15;;;;;;;7.78;1.60;;;;;;;;;;5022296;28;20554;-65
2022/11/22 10:54:47;;;;;;;11.77;2.00;;;;;;;;;;5025032;28;20537;-64
2022/11/22 10:57:23;;;;;;;11.98;2.20;;;;;;;;;;5009079;28;20033;-64
2022/11/22 10:59:55;;;;;;;11.48;2.28;;;;;;;;;;5024233;28;20029;-65
2022/11/22 11:02:35;;;;;;;12.00;1.80;;;;;;;;;;5028252;28;20364;-64
2022/11/22 11:05:05;;;;;;;12.40;1.80;;;;;;;;;;5027227;28;20033;-65
2022/11/22 11:07:31;;;;;;;8.57;1.88;;;;;;;;;;5008930;28;20037;-65
2022/11/22 11:09:59;;;;;;;8.10;1.80;;;;;;;;;;5022135;28;20036;-65
2022/11/22 11:12:38;;;;;;;12.35;1.85;;;;;;;;;;5030163;28;20627;-65
2022/11/22 11:15:06;;;;;;;6.50;1.30;;;;;;;;;;5009784;28;20475;-64
2022/11/22 11:17:34;;;;;;;9.55;1.48;;;;;;;;;;5023191;28;20017;-66
2022/11/22 11:20:01;;;;;;;8.77;1.50;;;;;;;;;;5024356;28;20029;-66
2022/11/22 11:22:30;;;;;;;10.95;1.98;;;;;;;;;;5008344;28;20025;-64
2022/11/22 11:24:56;;;;;;;10.30;2.15;;;;;;;;;;5025373;28;20029;-64
2022/11/22 11:27:30;;;;;;;8.73;1.85;;;;;;;;;;5027296;28;20123;-65
2022/11/22 11:30:03;;;;;;;9.45;1.58;;;;;;;;;;5005693;28;20056;-65
2022/11/22 11:32:31;;;;;;;9.57;1.85;;;;;;;;;;5023011;28;20037;-65
2022/11/22 11:35:00;;;;;;;10.80;1.77;;;;;;;;;;5006410;28;20025;-64
2022/11/22 11:37:35;;;;;;;9.38;1.88;;;;;;;;;;5010391;28;20029;-64
2022/11/22 11:40:01;;;;;;;9.07;1.77;;;;;;;;;;5024079;28;20393;-64
2022/11/22 11:42:29;;;;;;;10.13;2.10;;;;;;;;;;5027435;28;20072;-66
2022/11/22 11:45:15;;;;;;;8.25;1.40;;;;;;;;;;5009202;28;20053;-65
2022/11/22 11:47:45;;;;;;;7.47;1.25;;;;;;;;;;5008395;28;20060;-65
2022/11/22 11:50:29;;;;;;;10.38;1.70;;;;;;;;;;5025868;28;20555;-65
2022/11/22 11:53:06;;;;;;;6.72;1.25;;;;;;;;;;5023219;28;20044;-65
2022/11/22 11:55:37;;;;;;;9.27;1.42;;;;;;;;;;5027608;28;20029;-65
2022/11/22 11:58:09;;;;;;;9.00;2.08;;;;;;;;;;5022974;28;20295;-65
2022/11/22 12:00:38;;;;;;;7.57;1.60;;;;;;;;;;5008156;28;20039;-65
2022/11/22 12:03:08;;;;;;;9.77;1.65;;;;;;;;;;5024572;28;20479;-65
2022/11/22 12:05:34;;;;;;;6.05;1.45;;;;;;;;;;5008037;28;20040;-66
2022/11/22 12:08:01;;;;;;;6.70;1.33;;;;;;;;;;5023414;28;20047;-66
2022/11/22 12:10:31;;;;;;;7.45;1.40;;;;;;;;;;5023166;28;20529;-66
2022/11/22 12:13:15;;;;;;;5.80;1.00;;;;;;;;;;4990991;28;20041;-66
2022/11/22 12:15:57;;;;;;;7.35;1.58;;;;;;;;;;4985947;28;20326;-66
2022/11/22 12:18:29;;;;;;;7.32;1.30;;;;;;;;;;4995774;28;20111;-65
2022/11/22 12:20:58;;;;;;;7.20;1.40;;;;;;;;;;4990399;28;20038;-65
2022/11/22 12:23:29;;;;;;;9.85;1.80;;;;;;;;;;4995881;28;20094;-65
2022/11/22 12:25:56;;;;;;;9.82;1.50;;;;;;;;;;4990110;28;20030;-65
2022/11/22 12:28:23;;;;;;;6.97;1.30;;;;;;;;;;4993209;28;20033;-65
2022/11/22 12:30:54;;;;;;;8.10;1.80;;;;;;;;;;4984737;28;20064;-65
2022/11/22 12:33:23;;;;;;;6.22;1.33;;;;;;;;;;4994221;28;20025;-65
2022/11/22 12:35:52;;;;;;;9.13;1.80;;;;;;;;;;4988905;28;20111;-65
2022/11/22 12:38:31;;;;;;;7.00;1.30;;;;;;;;;;4990957;28;20053;-64
2022/11/22 12:41:00;;;;;;;8.60;1.50;;;;;;;;;;4989162;28;20029;-65
2022/11/22 12:43:26;;;;;;;6.88;1.30;;;;;;;;;;4994324;28;20095;-65
2022/11/22 12:45:54;;;;;;;6.75;1.30;;;;;;;;;;4990241;28;20074;-65
2022/11/22 12:48:22;;;;;;;5.63;1.10;;;;;;;;;;4990892;28;20044;-66
2022/11/22 12:50:53;;;;;;;6.65;1.02;;;;;;;;;;4986636;28;20066;-64
2022/11/22 12:53:27;;;;;;;8.63;1.30;;;;;;;;;;4990314;28;20029;-66
2022/11/22 12:55:57;;;;;;;7.47;1.20;;;;;;;;;;4984610;28;20057;-66
2022/11/22 12:58:29;;;;;;;7.28;1.40;;;;;;;;;;4993145;28;20107;-65
2022/11/22 13:00:58;;;;;;;5.40;0.98;;;;;;;;;;4988072;28;20116;-66
2022/11/22 13:03:34;;;;;;;5.40;1.35;;;;;;;;;;4993435;28;20030;-66
2022/11/22 13:06:03;;;;;;;6.35;1.50;;;;;;;;;;4986095;28;20045;-65
2022/11/22 13:08:29;;;;;;;7.28;1.50;;;;;;;;;;4990474;28;20038;-70
2022/11/22 13:11:11;;;;;;;8.48;1.92;;;;;;;;;;4989674;28;20069;-68
2022/11/22 13:13:39;;;;;;;9.20;1.95;;;;;;;;;;5029371;28;20028;-69
2022/11/22 13:16:10;;;;;;;6.47;1.40;;;;;;;;;;5026166;28;20029;-69
2022/11/22 13:18:38;;;;;;;6.18;1.30;;;;;;;;;;5026192;28;20517;-68
2022/11/22 13:21:23;;;;;;;5.40;1.23;;;;;;;;;;5022713;28;20483;-69
2022/11/22 13:23:49;;;;;;;9.20;2.35;;;;;;;;;;5001337;28;20033;-70
2022/11/22 13:26:38;;;;;;;8.88;1.40;;;;;;;;;;5007904;28;20032;-68
2022/11/22 13:29:11;;;;;;;5.90;1.02;;;;;;;;;;4945238;28;20374;-68
2022/11/22 13:31:37;;;;;;;7.10;1.67;;;;;;;;;;4934221;28;20050;-68
2022/11/22 13:34:20;;;;;;;7.43;1.40;;;;;;;;;;4932279;28;20461;-67
2022/11/22 13:36:47;;;;;;;8.55;1.45;;;;;;;;;;4934517;28;20190;-68
2022/11/22 13:39:16;;;;;;;6.50;1.40;;;;;;;;;;4934841;28;20198;-67
2022/11/22 13:41:42;;;;;;;5.10;1.10;;;;;;;;;;4949566;28;20062;-68
2022/11/22 13:44:23;;;;;;;5.10;1.00;;;;;;;;;;4938743;28;20749;-68
2022/11/22 13:46:49;;;;;;;6.53;1.15;;;;;;;;;;4946048;28;20059;-68
2022/11/22 13:49:19;;;;;;;8.40;1.30;;;;;;;;;;4958985;28;20035;-68
2022/11/22 13:51:53;;;;;;;9.07;1.80;;;;;;;;;;4935651;28;20086;-67
2022/11/22 13:54:37;;;;;;;7.30;1.38;;;;;;;;;;4953398;28;20043;-69
2022/11/22 13:57:24;;;;;;;5.68;1.13;;;;;;;;;;4935079;28;20027;-68
2022/11/22 14:00:08;;;;;;;8.95;1.42;;;;;;;;;;4940184;28;20062;-69
2022/11/22 14:02:35;;;;;;;10.20;2.10;;;;;;;;;;4936612;28;20027;-68
2022/11/22 14:05:01;;;;;;;7.90;1.23;;;;;;;;;;4932965;28;20144;-68
2022/11/22 14:07:36;;;;;;;9.30;1.88;;;;;;;;;;5027160;28;20017;-67
2022/11/22 14:10:03;;;;;;;8.98;1.33;;;;;;;;;;5022996;28;20156;-68
2022/11/22 14:12:36;;;;;;;6.78;1.30;;;;;;;;;;5027377;28;20173;-68
2022/11/22 14:15:14;;;;;;;8.38;1.30;;;;;;;;;;5022989;28;20156;-68
2022/11/22 14:17:40;;;;;;;6.18;1.10;;;;;;;;;;5026177;28;20392;-68
2022/11/22 14:20:06;;;;;;;;;;;;;;;;;;5008361;28;20033;-68
2022/11/22 14:22:35;;;;;;;6.80;1.02;;;;;;;;;;5008231;28;19999;-67
2022/11/22 14:25:20;;;;;;;8.55;1.27;;;;;;;;;;5007624;28;20044;-68
2022/11/22 14:27:49;;;;;;;8.18;1.27;;;;;;;;;;5024698;28;20040;-68
2022/11/22 14:30:26;;;;;;;6.97;1.23;;;;;;;;;;5024542;28;20068;-69
2022/11/22 14:33:16;;;;;;;9.27;1.08;;;;;;;;;;5006237;28;20265;-68
2022/11/22 14:36:01;;;;;;;6.18;1.00;;;;;;;;;;5008957;28;20488;-68
2022/11/22 14:38:29;;;;;;;6.72;1.00;;;;;;;;;;5028359;28;20136;-69
2022/11/22 14:41:14;;;;;;;4.93;1.05;;;;;;;;;;5009106;28;20045;-66
2022/11/22 14:43:40;;;;;;;2.63;0.73;;;;;;;;;;5010719;28;20037;-67
2022/11/22 14:46:10;;;;;;;12.27;1.50;;;;;;;;;;5024830;28;20052;-66
2022/11/22 14:48:44;;;;;;;5.38;1.27;;;;;;;;;;5016575;28;20556;-66
2022/11/22 14:51:20;;;;;;;6.72;1.20;;;;;;;;;;5004189;28;20039;-67
2022/11/22 14:53:57;;;;;;;5.77;0.70;;;;;;;;;;5009111;28;20387;-67
2022/11/22 14:56:36;;;;;;;5.70;0.90;;;;;;;;;;5009008;28;20124;-68